createdAt,value
2023-01-03T00:02:19.593Z,102123.41
2023-01-03T00:04:49.732Z,102118.06
2023-01-03T00:07:33.947Z,102123.38
2023-01-03T00:10:11.394Z,102114.50
2023-01-03T00:12:38.971Z,102114.53
2023-01-03T00:15:06.807Z,102115.41
2023-01-03T00:17:34.140Z,102110.97
2023-01-03T00:20:01.681Z,102122.50
2023-01-03T00:22:32.253Z,102120.75
2023-01-03T00:24:59.814Z,102116.31
2023-01-03T00:27:27.731Z,102112.78
2023-01-03T00:29:55.523Z,102116.28
2023-01-03T00:32:22.898Z,102112.75
2023-01-03T00:34:50.297Z,102110.97
2023-01-03T00:37:17.710Z,102112.75
2023-01-03T00:39:45.118Z,102108.28
2023-01-03T00:42:12.645Z,102107.41
2023-01-03T00:44:40.008Z,102110.94
2023-01-03T00:47:07.408Z,102110.06
2023-01-03T00:49:34.807Z,102110.94
2023-01-03T00:52:02.288Z,102111.81
2023-01-03T00:54:29.656Z,102105.59
2023-01-03T00:56:57.022Z,102110.94
2023-01-03T00:59:24.374Z,102112.69
2023-01-03T01:01:54.549Z,102116.25
2023-01-03T01:04:30.229Z,102116.25
2023-01-03T01:07:00.733Z,102118.94
2023-01-03T01:09:34.718Z,102123.38
2023-01-03T01:12:03.082Z,102123.38
2023-01-03T01:14:33.290Z,102122.47
2023-01-03T01:17:03.939Z,102126.03
2023-01-03T01:19:37.150Z,102125.16
2023-01-03T01:22:04.968Z,102118.06
2023-01-03T01:24:33.264Z,102125.19
2023-01-03T01:27:01.183Z,102119.84
2023-01-03T01:29:28.732Z,102115.38
2023-01-03T01:31:56.240Z,102126.94
2023-01-03T01:34:23.911Z,102128.69
2023-01-03T01:36:51.764Z,102130.44
2023-01-03T01:39:24.785Z,102129.59
2023-01-03T01:42:19.461Z,102134.03
2023-01-03T01:44:58.860Z,102134.00
2023-01-03T01:47:28.809Z,102128.69
2023-01-03T01:50:16.463Z,102130.44
2023-01-03T01:52:52.900Z,102128.69
2023-01-03T01:55:35.384Z,102126.88
2023-01-03T01:58:03.357Z,102127.78
2023-01-03T02:00:30.975Z,102129.56
2023-01-03T02:02:59.155Z,102120.69
2023-01-03T02:05:27.833Z,102129.59
2023-01-03T02:07:55.784Z,102121.59
2023-01-03T02:10:51.625Z,102118.94
2023-01-03T02:13:39.298Z,102117.16
2023-01-03T02:16:34.376Z,102111.84
2023-01-03T02:19:26.904Z,102114.50
2023-01-03T02:22:12.906Z,102111.84
2023-01-03T02:25:13.080Z,102111.00
2023-01-03T02:27:59.391Z,102114.50
2023-01-03T02:30:35.547Z,102103.88
2023-01-03T02:33:21.639Z,102094.06
2023-01-03T02:36:05.608Z,102107.38
2023-01-03T02:38:41.068Z,102103.84
2023-01-03T02:41:36.298Z,102110.06
2023-01-03T02:44:22.445Z,102114.50
2023-01-03T02:46:55.808Z,102106.53
2023-01-03T02:49:30.894Z,102097.63
2023-01-03T02:52:10.161Z,102093.22
2023-01-03T02:54:44.440Z,102090.53
2023-01-03T02:57:16.236Z,102094.09
2023-01-03T02:59:51.383Z,102081.69
2023-01-03T03:02:21.790Z,102094.97
2023-01-03T03:04:55.548Z,102095.88
2023-01-03T03:07:34.167Z,102091.41
2023-01-03T03:10:20.864Z,102086.13
2023-01-03T03:13:13.249Z,102086.09
2023-01-03T03:16:01.013Z,102096.75
2023-01-03T03:18:47.739Z,102098.53
2023-01-03T03:21:37.287Z,102087.91
2023-01-03T03:24:30.415Z,102088.78
2023-01-03T03:27:00.524Z,102088.75
2023-01-03T03:29:29.027Z,102084.34
2023-01-03T03:31:57.089Z,102076.34
2023-01-03T03:34:31.083Z,102083.44
2023-01-03T03:37:12.009Z,102096.75
2023-01-03T03:39:57.826Z,102091.38
2023-01-03T03:43:14.850Z,102085.19
2023-01-03T03:46:03.737Z,102085.22
2023-01-03T03:49:23.705Z,102083.44
2023-01-03T03:51:56.012Z,102076.38
2023-01-03T03:54:25.927Z,102090.56
2023-01-03T03:57:00.215Z,102095.00
2023-01-03T03:59:29.508Z,102093.22
2023-01-03T04:02:01.601Z,102094.97
2023-01-03T04:04:36.920Z,102090.56
2023-01-03T04:07:04.772Z,102092.28
2023-01-03T04:09:32.490Z,102084.34
2023-01-03T04:11:59.941Z,102093.22
2023-01-03T04:14:27.471Z,102079.00
2023-01-03T04:16:54.990Z,102079.00
2023-01-03T04:19:22.519Z,102075.47
2023-01-03T04:21:49.892Z,102080.81
2023-01-03T04:24:19.593Z,102087.03
2023-01-03T04:26:48.533Z,102077.25
2023-01-03T04:29:16.101Z,102082.59
2023-01-03T04:31:43.541Z,102077.25
2023-01-03T04:34:11.069Z,102092.38
2023-01-03T04:36:38.583Z,102087.94
2023-01-03T04:39:06.093Z,102094.13
2023-01-03T04:41:33.609Z,102087.06
2023-01-03T04:44:04.705Z,102084.38
2023-01-03T04:46:35.351Z,102087.91
2023-01-03T04:49:03.805Z,102088.84
2023-01-03T04:51:31.515Z,102070.19
2023-01-03T04:53:58.996Z,102087.03
2023-01-03T04:56:29.161Z,102087.03
2023-01-03T04:58:56.861Z,102089.66
2023-01-03T05:01:26.121Z,102087.91
2023-01-03T05:04:00.978Z,102082.63
2023-01-03T05:06:29.226Z,102081.75
2023-01-03T05:08:56.961Z,102092.34
2023-01-03T05:11:24.537Z,102080.84
2023-01-03T05:13:51.945Z,102085.25
2023-01-03T05:16:19.468Z,102087.03
2023-01-03T05:18:48.206Z,102094.16
2023-01-03T05:21:36.521Z,102092.38
2023-01-03T05:24:22.749Z,102104.78
2023-01-03T05:26:51.019Z,102109.25
2023-01-03T05:29:21.191Z,102107.44
2023-01-03T05:31:49.454Z,102107.44
2023-01-03T05:34:16.949Z,102115.41
2023-01-03T05:36:44.425Z,102103.88
2023-01-03T05:39:12.286Z,102112.75
2023-01-03T05:41:58.307Z,102117.19
2023-01-03T05:44:26.800Z,102120.75
2023-01-03T05:46:54.279Z,102113.69
2023-01-03T05:49:21.696Z,102132.28
2023-01-03T05:51:49.809Z,102131.41
2023-01-03T05:54:19.339Z,102138.50
2023-01-03T05:56:47.034Z,102126.13
2023-01-03T05:59:14.779Z,102130.56
2023-01-03T06:01:42.170Z,102123.44
2023-01-03T06:04:09.733Z,102128.75
2023-01-03T06:06:37.254Z,102132.31
2023-01-03T06:09:04.709Z,102134.06
2023-01-03T06:11:32.141Z,102119.00
2023-01-03T06:13:59.491Z,102127.00
2023-01-03T06:16:45.705Z,102136.75
2023-01-03T06:19:13.385Z,102136.75
2023-01-03T06:21:41.662Z,102143.84
2023-01-03T06:24:09.932Z,102137.63
2023-01-03T06:26:37.442Z,102131.41
2023-01-03T06:29:06.024Z,102150.94
2023-01-03T06:31:33.991Z,102148.28
2023-01-03T06:34:01.548Z,102142.94
2023-01-03T06:36:29.597Z,102147.38
2023-01-03T06:38:58.396Z,102135.84
2023-01-03T06:41:26.006Z,102145.63
2023-01-03T06:43:56.797Z,102144.72
2023-01-03T06:46:42.580Z,102147.38
2023-01-03T06:49:34.890Z,102139.41
2023-01-03T06:52:22.946Z,102142.03
2023-01-03T06:54:50.844Z,102138.50
2023-01-03T06:57:26.514Z,102141.16
2023-01-03T06:59:55.360Z,102141.16
2023-01-03T07:02:23.017Z,102144.72
2023-01-03T07:04:50.681Z,102151.81
2023-01-03T07:07:18.180Z,102149.16
2023-01-03T07:09:45.585Z,102147.38
2023-01-03T07:12:31.254Z,102168.69
2023-01-03T07:14:59.082Z,102162.47
2023-01-03T07:17:26.639Z,102162.44
2023-01-03T07:19:53.966Z,102158.94
2023-01-03T07:22:21.382Z,102174.00
2023-01-03T07:24:48.749Z,102161.56
2023-01-03T07:27:16.165Z,102166.88
2023-01-03T07:29:43.555Z,102169.56
2023-01-03T07:32:10.974Z,102166.91
2023-01-03T07:34:38.423Z,102174.88
2023-01-03T07:37:05.746Z,102163.34
2023-01-03T07:39:33.156Z,102176.63
2023-01-03T07:42:19.383Z,102173.09
2023-01-03T07:44:46.836Z,102166.03
2023-01-03T07:47:14.554Z,102171.31
2023-01-03T07:49:41.974Z,102173.97
2023-01-03T07:52:09.509Z,102174.88
2023-01-03T07:54:36.945Z,102166.00
2023-01-03T07:57:04.416Z,102165.09
2023-01-03T07:59:31.910Z,102178.41
2023-01-03T08:01:59.393Z,102178.41
2023-01-03T08:04:27.128Z,102169.53
2023-01-03T08:06:54.616Z,102170.41
2023-01-03T08:09:40.530Z,102167.75
2023-01-03T08:12:28.054Z,102162.44
2023-01-03T08:14:55.473Z,102176.66
2023-01-03T08:17:22.811Z,102165.97
2023-01-03T08:19:50.478Z,102178.41
2023-01-03T08:22:17.896Z,102170.44
2023-01-03T08:24:45.343Z,102173.09
2023-01-03T08:27:12.833Z,102180.16
2023-01-03T08:29:40.308Z,102182.84
2023-01-03T08:32:07.971Z,102180.16
2023-01-03T08:34:37.840Z,102181.03
2023-01-03T08:37:10.412Z,102193.47
2023-01-03T08:40:01.030Z,102189.00
2023-01-03T08:42:28.765Z,102189.00
2023-01-03T08:45:02.358Z,102196.13
2023-01-03T08:47:31.117Z,102196.16
2023-01-03T08:49:59.926Z,102205.88
2023-01-03T08:52:33.119Z,102203.22
2023-01-03T08:55:02.884Z,102203.22
2023-01-03T08:57:30.378Z,102195.22
2023-01-03T08:59:57.794Z,102205.84
2023-01-03T09:02:25.528Z,102210.28
2023-01-03T09:04:53.229Z,102219.16
2023-01-03T09:07:20.608Z,102212.91
2023-01-03T09:09:48.013Z,102211.09
2023-01-03T09:12:15.480Z,102226.19
2023-01-03T09:14:42.932Z,102213.78
2023-01-03T09:17:10.306Z,102217.34
2023-01-03T09:19:37.724Z,102229.72
2023-01-03T09:22:05.217Z,102225.28
2023-01-03T09:24:32.679Z,102221.78
2023-01-03T09:27:00.112Z,102234.19
2023-01-03T09:29:27.579Z,102218.19
2023-01-03T09:31:55.060Z,102228.91
2023-01-03T09:34:22.525Z,102215.50
2023-01-03T09:36:49.853Z,102223.53
2023-01-03T09:39:17.271Z,102224.41
2023-01-03T09:41:44.980Z,102219.06
2023-01-03T09:44:13.059Z,102222.59
2023-01-03T09:46:40.776Z,102219.03
2023-01-03T09:49:08.306Z,102217.25
2023-01-03T09:52:01.462Z,102215.44
2023-01-03T09:54:53.821Z,102212.75
2023-01-03T09:57:46.852Z,102203.81
2023-01-03T10:00:36.915Z,102216.19
2023-01-03T10:03:37.394Z,102199.31
2023-01-03T10:06:41.249Z,102200.19
2023-01-03T10:09:39.878Z,102201.06
2023-01-03T10:12:12.897Z,102192.03
2023-01-03T10:14:53.892Z,102187.59
2023-01-03T10:17:36.197Z,102188.53
2023-01-03T10:20:03.548Z,102191.16
2023-01-03T10:22:33.204Z,102192.00
2023-01-03T10:25:23.824Z,102180.44
2023-01-03T10:27:57.085Z,102182.25
2023-01-03T10:30:30.498Z,102176.06
2023-01-03T10:33:25.050Z,102170.75
2023-01-03T10:35:52.567Z,102167.22
2023-01-03T10:38:23.094Z,102164.53
2023-01-03T10:41:02.132Z,102167.19
2023-01-03T10:43:39.845Z,102179.56
2023-01-03T10:46:18.308Z,102164.47
2023-01-03T10:51:43.434Z,102153.72
2023-01-03T10:54:17.985Z,102160.84
2023-01-03T10:56:46.983Z,102148.34
2023-01-03T10:59:26.708Z,102154.41
2023-01-03T11:02:16.655Z,102157.25
2023-01-03T11:04:45.164Z,102135.91
2023-01-03T11:07:15.795Z,102150.09
2023-01-03T11:09:58.281Z,102129.75
2023-01-03T11:12:28.836Z,102141.13
2023-01-03T11:14:58.226Z,102133.16
2023-01-03T11:17:26.926Z,102134.97
2023-01-03T11:19:56.380Z,102118.13
2023-01-03T11:22:39.967Z,102122.63
2023-01-03T11:25:12.842Z,102119.94
2023-01-03T11:27:49.217Z,102124.41
2023-01-03T11:30:19.317Z,102136.81
2023-01-03T11:32:54.426Z,102127.06
2023-01-03T11:35:41.562Z,102124.34
2023-01-03T11:38:27.111Z,102135.84
2023-01-03T11:41:13.853Z,102126.03
2023-01-03T11:44:09.972Z,102131.41
2023-01-03T11:46:52.498Z,102124.38
2023-01-03T11:49:59.171Z,102139.41
2023-01-03T11:52:57.089Z,102127.84
2023-01-03T11:55:49.748Z,102108.34
2023-01-03T11:58:17.188Z,102111.88
2023-01-03T12:00:50.697Z,102110.06
2023-01-03T12:03:24.040Z,102111.81
2023-01-03T12:06:11.702Z,102110.91
2023-01-03T12:08:48.349Z,102113.50
2023-01-03T12:11:40.675Z,102107.28
2023-01-03T12:14:16.576Z,102113.56
2023-01-03T12:17:11.257Z,102105.56
2023-01-03T12:19:43.818Z,102098.34
2023-01-03T12:22:16.132Z,102093.03
2023-01-03T12:24:59.107Z,102077.97
2023-01-03T12:27:36.362Z,102091.31
2023-01-03T12:30:34.772Z,102079.75
2023-01-03T12:33:31.040Z,102076.19
2023-01-03T12:36:28.005Z,102086.78
2023-01-03T12:39:49.646Z,102084.09
2023-01-03T12:42:35.949Z,102073.44
2023-01-03T12:45:34.253Z,102067.22
2023-01-03T12:48:34.727Z,102067.13
2023-01-03T12:51:02.240Z,102066.22
2023-01-03T12:53:32.756Z,102063.47
2023-01-03T12:56:06.695Z,102063.44
2023-01-03T12:58:52.308Z,102064.25
2023-01-03T13:01:34.560Z,102050.97
2023-01-03T13:04:25.039Z,102058.00
2023-01-03T13:07:05.609Z,102056.19
2023-01-03T13:09:38.158Z,102057.13
2023-01-03T13:12:12.533Z,102059.00
2023-01-03T13:15:05.916Z,102067.03
2023-01-03T13:17:44.830Z,102043.88
2023-01-03T13:20:15.113Z,102049.13
2023-01-03T13:22:50.416Z,102036.56
2023-01-03T13:25:26.583Z,102040.09
2023-01-03T13:27:57.555Z,102039.25
2023-01-03T13:30:30.809Z,102043.81
2023-01-03T13:33:13.456Z,102037.63
2023-01-03T13:35:46.755Z,102030.53
2023-01-03T13:38:24.593Z,102021.69
2023-01-03T13:41:39.002Z,102017.38
2023-01-03T13:44:28.699Z,102026.28
2023-01-03T13:46:56.569Z,102034.22
2023-01-03T13:49:27.747Z,102044.91
2023-01-03T13:51:57.512Z,102038.59
2023-01-03T13:54:25.185Z,102044.84
2023-01-03T13:56:53.500Z,102050.22
2023-01-03T13:59:42.479Z,102038.72
2023-01-03T14:02:14.132Z,102041.38
2023-01-03T14:05:02.701Z,102028.94
2023-01-03T14:07:48.121Z,102032.44
2023-01-03T14:10:51.458Z,102035.09
2023-01-03T14:13:28.523Z,102038.72
2023-01-03T14:16:12.896Z,102043.13
2023-01-03T14:18:45.815Z,102036.88
2023-01-03T14:21:30.338Z,102048.44
2023-01-03T14:24:01.114Z,102046.72
2023-01-03T14:26:31.718Z,102055.56
2023-01-03T14:29:00.374Z,102051.16
2023-01-03T14:31:28.326Z,102050.19
2023-01-03T14:33:59.660Z,102057.38
2023-01-03T14:36:28.520Z,102052.03
2023-01-03T14:38:58.544Z,102064.50
2023-01-03T14:41:27.930Z,102059.13
2023-01-03T14:44:19.870Z,102062.72
2023-01-03T14:46:53.538Z,102061.88
2023-01-03T14:49:44.618Z,102064.66
2023-01-03T14:52:19.130Z,102072.63
2023-01-03T14:54:50.770Z,102057.47
2023-01-03T14:57:26.083Z,102061.06
2023-01-03T14:59:56.658Z,102048.63
2023-01-03T15:02:25.206Z,102046.81
2023-01-03T15:04:56.042Z,102045.13
2023-01-03T15:07:34.595Z,102054.94
2023-01-03T15:10:15.630Z,102052.25
2023-01-03T15:12:48.383Z,102062.88
2023-01-03T15:15:28.418Z,102069.09
2023-01-03T15:18:01.827Z,102061.06
2023-01-03T15:20:35.722Z,102060.22
2023-01-03T15:23:04.396Z,102061.16
2023-01-03T15:25:41.757Z,102064.69
2023-01-03T15:28:27.721Z,102059.34
2023-01-03T15:31:01.173Z,102066.47
2023-01-03T15:33:34.193Z,102072.66
2023-01-03T15:36:18.720Z,102069.16
2023-01-03T15:38:48.851Z,102079.84
2023-01-03T15:41:43.507Z,102085.22
2023-01-03T15:44:13.408Z,102089.66
2023-01-03T15:46:45.801Z,102093.22
2023-01-03T15:49:15.505Z,102087.88
2023-01-03T15:51:42.968Z,102092.31
2023-01-03T15:54:16.108Z,102086.97
2023-01-03T15:57:03.374Z,102096.72
2023-01-03T15:59:39.640Z,102092.38
2023-01-03T16:02:18.345Z,102096.78
2023-01-03T16:04:47.531Z,102084.34
2023-01-03T16:07:15.915Z,102094.16
2023-01-03T16:09:43.363Z,102096.84
2023-01-03T16:12:17.568Z,102092.47
2023-01-03T16:14:49.442Z,102102.22
2023-01-03T16:17:24.679Z,102112.84
2023-01-03T16:19:53.716Z,102108.38
2023-01-03T16:22:41.339Z,102109.31
2023-01-03T16:25:15.447Z,102109.31
2023-01-03T16:27:43.087Z,102103.16
2023-01-03T16:30:13.084Z,102116.47
2023-01-03T16:32:40.682Z,102109.41
2023-01-03T16:35:16.087Z,102113.00
2023-01-03T16:37:44.001Z,102107.66
2023-01-03T16:40:20.411Z,102104.13
2023-01-03T16:42:48.280Z,102107.72
2023-01-03T16:45:17.058Z,102102.41
2023-01-03T16:47:44.980Z,102102.41
2023-01-03T16:50:16.061Z,102097.97
2023-01-03T16:52:47.697Z,102121.91
2023-01-03T16:55:17.789Z,102120.16
2023-01-03T16:57:48.883Z,102112.09
2023-01-03T17:00:25.219Z,102120.09
2023-01-03T17:02:55.702Z,102129.09
2023-01-03T17:05:23.700Z,102128.22
2023-01-03T17:07:53.467Z,102133.59
2023-01-03T17:10:31.634Z,102135.38
2023-01-03T17:13:04.103Z,102130.97
2023-01-03T17:15:35.866Z,102134.53
2023-01-03T17:18:03.185Z,102134.50
2023-01-03T17:20:30.781Z,102140.72
2023-01-03T17:23:00.140Z,102137.16
2023-01-03T17:25:27.572Z,102140.72
2023-01-03T17:27:57.355Z,102143.38
2023-01-03T17:30:27.172Z,102146.00
2023-01-03T17:32:55.307Z,102139.81
2023-01-03T17:35:22.736Z,102148.72
2023-01-03T17:40:42.155Z,102145.16
2023-01-03T17:43:24.799Z,102147.00
2023-01-03T17:46:17.805Z,102145.22
2023-01-03T17:49:08.771Z,102151.47
2023-01-03T17:51:36.250Z,102152.38
2023-01-03T17:54:03.839Z,102155.00
2023-01-03T17:56:31.330Z,102151.47
2023-01-03T17:58:58.700Z,102153.22
2023-01-03T18:01:26.184Z,102157.69
2023-01-03T18:03:53.785Z,102163.91
2023-01-03T18:06:23.829Z,102157.69
2023-01-03T18:08:52.907Z,102160.34
2023-01-03T18:11:24.541Z,102167.44
2023-01-03T18:13:51.847Z,102175.44
2023-01-03T18:16:22.561Z,102169.25
2023-01-03T18:18:50.652Z,102172.78
2023-01-03T18:21:27.657Z,102175.50
2023-01-03T18:24:01.515Z,102173.66
2023-01-03T18:26:35.852Z,102179.06
2023-01-03T18:29:04.719Z,102188.00
2023-01-03T18:31:32.366Z,102174.66
2023-01-03T18:34:04.277Z,102175.56
2023-01-03T18:36:38.920Z,102187.09
2023-01-03T18:39:28.807Z,102194.13
2023-01-03T18:42:17.373Z,102183.53
2023-01-03T18:44:44.946Z,102188.00
2023-01-03T18:47:13.185Z,102185.34
2023-01-03T18:49:40.618Z,102201.34
2023-01-03T18:52:23.231Z,102193.38
2023-01-03T18:54:51.791Z,102200.44
2023-01-03T18:57:19.647Z,102200.47
2023-01-03T18:59:47.621Z,102196.91
2023-01-03T19:02:17.002Z,102190.69
2023-01-03T19:04:50.777Z,102194.22
2023-01-03T19:07:30.891Z,102197.75
2023-01-03T19:09:59.661Z,102190.72
2023-01-03T19:12:27.216Z,102186.28
2023-01-03T19:14:54.649Z,102187.13
2023-01-03T19:17:21.987Z,102190.69
2023-01-03T19:19:49.353Z,102194.25
2023-01-03T19:22:26.936Z,102193.34
2023-01-03T19:24:57.108Z,102202.28
2023-01-03T19:27:33.937Z,102189.84
2023-01-03T19:30:03.911Z,102194.28
2023-01-03T19:32:32.138Z,102201.38
2023-01-03T19:34:59.661Z,102200.50
2023-01-03T19:37:27.119Z,102204.94
2023-01-03T19:39:54.503Z,102217.41
2023-01-03T19:42:40.878Z,102220.06
2023-01-03T19:45:17.117Z,102214.75
2023-01-03T19:47:44.576Z,102220.06
2023-01-03T19:50:28.223Z,102221.81
2023-01-03T19:52:55.813Z,102205.88
2023-01-03T19:55:27.493Z,102210.31
2023-01-03T19:57:55.175Z,102215.63
2023-01-03T20:00:28.738Z,102209.41
2023-01-03T20:02:58.683Z,102212.06
2023-01-03T20:05:35.032Z,102212.97
2023-01-03T20:08:12.210Z,102214.72
2023-01-03T20:10:43.381Z,102210.25
2023-01-03T20:13:23.399Z,102216.50
2023-01-03T20:15:54.519Z,102215.59
2023-01-03T20:18:26.168Z,102212.03
2023-01-03T20:20:56.763Z,102217.38
2023-01-03T20:23:24.664Z,102220.06
2023-01-03T20:25:52.641Z,102224.50
2023-01-03T20:28:29.144Z,102214.72
2023-01-03T20:31:01.475Z,102214.69
2023-01-03T20:33:29.204Z,102216.50
2023-01-03T20:36:17.600Z,102221.81
2023-01-03T20:38:49.175Z,102206.75
2023-01-03T20:41:18.327Z,102218.28
2023-01-03T20:43:47.597Z,102217.41
2023-01-03T20:46:20.111Z,102210.31
2023-01-03T20:48:56.100Z,102210.31
2023-01-03T20:51:26.973Z,102220.09
2023-01-03T20:53:55.471Z,102218.31
2023-01-03T20:56:23.854Z,102219.22
2023-01-03T20:58:51.325Z,102205.91
2023-01-03T21:01:18.879Z,102210.34
2023-01-03T21:03:46.528Z,102216.56
2023-01-03T21:06:19.696Z,102201.47
2023-01-03T21:08:56.342Z,102198.81
2023-01-03T21:11:32.183Z,102205.91
2023-01-03T21:14:00.978Z,102202.34
2023-01-03T21:16:43.522Z,102201.47
2023-01-03T21:19:19.184Z,102202.34
2023-01-03T21:21:48.964Z,102205.91
2023-01-03T21:24:17.921Z,102204.13
2023-01-03T21:26:45.439Z,102197.91
2023-01-03T21:29:13.057Z,102205.03
2023-01-03T21:31:43.039Z,102207.66
2023-01-03T21:34:17.383Z,102204.13
2023-01-03T21:36:44.985Z,102206.78
2023-01-03T21:39:12.553Z,102208.56
2023-01-03T21:42:00.362Z,102214.78
2023-01-03T21:44:27.818Z,102207.69
2023-01-03T21:46:55.152Z,102210.34
2023-01-03T21:49:22.627Z,102214.75
2023-01-03T21:51:50.049Z,102216.56
2023-01-03T21:54:17.425Z,102224.56
2023-01-03T21:56:46.032Z,102223.66
2023-01-03T21:59:15.583Z,102226.34
2023-01-03T22:02:03.219Z,102227.22
2023-01-03T22:04:31.015Z,102235.22
2023-01-03T22:07:00.884Z,102227.22
2023-01-03T22:09:49.064Z,102237.88
2023-01-03T22:12:18.117Z,102238.75
2023-01-03T22:14:46.285Z,102234.31
2023-01-03T22:17:14.244Z,102235.22
2023-01-03T22:19:41.672Z,102253.84
2023-01-03T22:22:09.181Z,102244.09
2023-01-03T22:24:36.619Z,102243.19
2023-01-03T22:27:04.137Z,102245.88
2023-01-03T22:29:31.562Z,102253.84
2023-01-03T22:31:59.022Z,102265.41
2023-01-03T22:34:26.533Z,102263.63
2023-01-03T22:36:53.998Z,102265.38
2023-01-03T22:39:21.378Z,102276.03
2023-01-03T22:41:48.742Z,102273.38
2023-01-03T22:44:16.119Z,102278.69
2023-01-03T22:46:43.479Z,102267.16
2023-01-03T22:49:10.944Z,102276.03
2023-01-03T22:51:38.363Z,102273.38
2023-01-03T22:54:06.542Z,102270.72
2023-01-03T22:56:34.033Z,102273.38
2023-01-03T22:59:02.066Z,102268.03
2023-01-03T23:01:29.932Z,102282.22
2023-01-03T23:04:03.714Z,102268.03
2023-01-03T23:06:32.143Z,102281.34
2023-01-03T23:09:01.276Z,102270.69
2023-01-03T23:11:49.424Z,102262.72
2023-01-03T23:14:19.476Z,102275.13
2023-01-03T23:16:47.579Z,102272.47
2023-01-03T23:19:16.979Z,102259.13
2023-01-03T23:21:47.292Z,102263.59
2023-01-03T23:24:17.400Z,102254.72
2023-01-03T23:26:44.887Z,102256.47
2023-01-03T23:29:14.495Z,102252.03
2023-01-03T23:31:42.868Z,102253.78
2023-01-03T23:34:13.630Z,102245.81
2023-01-03T23:36:43.396Z,102243.16
2023-01-03T23:39:13.777Z,102256.47
2023-01-03T23:41:41.483Z,102248.47
2023-01-03T23:44:09.396Z,102256.44
2023-01-03T23:46:37.067Z,102259.94
2023-01-03T23:49:04.855Z,102258.19
2023-01-03T23:51:32.280Z,102244.88
2023-01-03T23:53:59.808Z,102245.78
2023-01-03T23:56:27.315Z,102236.03
2023-01-03T23:58:54.850Z,102236.91
